createdAt,value
2023-08-11T00:08:29.444Z,5.7
2023-08-11T00:28:41.533Z,5.8
2023-08-11T00:38:47.603Z,6.8
2023-08-11T00:48:53.653Z,8
2023-08-11T00:58:59.700Z,8.2
2023-08-11T01:09:05.742Z,7.6
2023-08-11T01:29:17.836Z,8.9
2023-08-11T01:39:23.882Z,8.9
2023-08-11T01:49:29.939Z,9.3
2023-08-11T01:59:36.056Z,10.1
2023-08-11T02:09:42.250Z,10
2023-08-11T02:19:48.306Z,10.6
2023-08-11T02:29:54.418Z,10.4
2023-08-11T02:40:00.561Z,11.2
2023-08-11T02:50:06.685Z,11.5
2023-08-11T03:00:12.814Z,12
2023-08-11T03:10:17.917Z,10.8
2023-08-11T03:20:22.983Z,11.8
2023-08-11T03:30:29.026Z,11.1
2023-08-11T03:40:35.082Z,10.3
2023-08-11T03:50:41.139Z,11.4
2023-08-11T04:00:47.178Z,11.5
2023-08-11T04:10:53.228Z,11.2
2023-08-11T04:20:59.269Z,11.8
2023-08-11T04:31:05.311Z,11.3
2023-08-11T04:41:11.443Z,12.8
2023-08-11T04:51:17.416Z,12.4
2023-08-11T05:01:23.450Z,11.9
2023-08-11T05:11:29.501Z,11.5
2023-08-11T05:21:35.565Z,10.8
2023-08-11T05:31:40.610Z,10.8
2023-08-11T05:41:46.703Z,10.3
2023-08-11T05:51:52.719Z,9.4
2023-08-11T06:01:58.767Z,8.2
2023-08-11T06:22:10.849Z,8.3
2023-08-11T06:32:16.907Z,8.6
2023-08-11T06:42:21.979Z,7.1
2023-08-11T06:52:27.048Z,7.2
2023-08-11T07:02:33.109Z,6.4
2023-08-11T07:12:39.146Z,5.8
2023-08-11T07:22:45.192Z,5.6
2023-08-11T07:32:51.231Z,4.8
2023-08-11T07:42:57.289Z,5
2023-08-11T07:53:03.347Z,4.9
2023-08-11T08:03:09.373Z,5.1
2023-08-11T08:13:15.431Z,3.9
2023-08-11T08:23:21.490Z,4
2023-08-11T08:33:27.534Z,3
2023-08-11T08:43:33.568Z,2.7
2023-08-11T08:53:39.626Z,2.8
2023-08-11T09:03:45.669Z,2.7
2023-08-11T09:13:50.728Z,3.1
2023-08-11T09:23:56.771Z,2.6
2023-08-11T09:34:02.851Z,3.3
2023-08-11T09:44:08.865Z,2.7
2023-08-11T09:54:14.915Z,2.5
2023-08-11T10:04:20.988Z,3.4
2023-08-11T10:14:27.071Z,2.8
2023-08-11T10:24:33.058Z,2.8
2023-08-11T10:34:39.113Z,3
2023-08-11T10:44:45.157Z,2.8
2023-08-11T10:54:51.197Z,2.5
2023-08-11T11:04:57.252Z,2.6
2023-08-11T11:25:09.343Z,2.7
2023-08-11T11:35:14.413Z,2.7
2023-08-11T11:45:20.472Z,3.4
2023-08-11T11:55:26.516Z,3.1
2023-08-11T12:05:32.587Z,3
2023-08-11T12:15:38.604Z,2.9
2023-08-11T12:25:44.666Z,2.7
2023-08-11T12:35:50.709Z,3
2023-08-11T12:45:56.751Z,2.7
2023-08-11T12:56:02.816Z,2.9
2023-08-11T13:06:08.855Z,2.8
2023-08-11T13:16:14.910Z,2.8
2023-08-11T13:26:20.961Z,2.7
2023-08-11T13:36:27.003Z,2.6
2023-08-11T13:46:32.067Z,2.6
2023-08-11T13:56:38.119Z,2.9
2023-08-11T14:06:44.341Z,2.8
2023-08-11T14:16:50.229Z,2.8
2023-08-11T14:26:56.269Z,2.4
2023-08-11T14:37:02.326Z,2.4
2023-08-11T14:47:08.382Z,2.5
2023-08-11T14:57:14.788Z,2.5
2023-08-11T15:07:20.462Z,2.5
2023-08-11T15:17:26.522Z,2.5
2023-08-11T15:27:32.557Z,2.5
2023-08-11T15:37:38.624Z,2.9
2023-08-11T15:47:44.668Z,3.1
2023-08-11T15:57:49.733Z,3.2
2023-08-11T16:07:55.784Z,3.8
2023-08-11T16:18:01.825Z,3.5
2023-08-11T16:28:07.892Z,3.9
2023-08-11T16:38:13.956Z,3.7
2023-08-11T16:48:19.974Z,4
2023-08-11T16:58:26.029Z,3.8
2023-08-11T17:08:32.078Z,4.2
2023-08-11T17:18:38.114Z,3.5
2023-08-11T17:28:44.169Z,3.6
2023-08-11T17:38:50.231Z,4.4
2023-08-11T17:48:56.266Z,4.2
2023-08-11T17:59:02.334Z,4.1
2023-08-11T18:09:07.382Z,4.4
2023-08-11T18:19:13.516Z,4.7
2023-08-11T18:29:19.483Z,4.7
2023-08-11T18:39:25.541Z,4.7
2023-08-11T18:49:31.626Z,5.1
2023-08-11T18:59:37.658Z,5.4
2023-08-11T19:09:43.690Z,5.8
2023-08-11T19:19:49.727Z,5.2
2023-08-11T19:29:55.761Z,5.4
2023-08-11T19:40:01.863Z,5.9
2023-08-11T19:50:07.868Z,6.9
2023-08-11T20:00:13.924Z,7.5
2023-08-11T20:10:19.976Z,7.5
2023-08-11T20:20:25.042Z,7
2023-08-11T20:30:31.095Z,6.7
2023-08-11T20:40:37.122Z,7.2
2023-08-11T20:50:43.183Z,7.1
2023-08-11T21:00:49.232Z,8.4
2023-08-11T21:10:55.268Z,10.1
2023-08-11T21:21:01.324Z,7.5
2023-08-11T21:31:07.366Z,7.1
2023-08-11T21:41:13.524Z,7.6
2023-08-11T21:51:19.517Z,8.8
2023-08-11T22:01:25.514Z,8.4
2023-08-11T22:11:31.557Z,8
2023-08-11T22:21:37.617Z,9.1
2023-08-11T22:31:42.677Z,9.4
2023-08-11T22:41:48.723Z,8.7
2023-08-11T22:51:54.755Z,8.1
2023-08-11T23:02:00.816Z,8
2023-08-11T23:12:06.864Z,8
2023-08-11T23:22:12.919Z,8.7
2023-08-11T23:32:18.958Z,9.2
2023-08-11T23:42:25.004Z,10.7
2023-08-11T23:52:31.114Z,13.1
